Погода Болинаона неделю

Лусон, Филиппины

21 - 27 апреля
  • 21апреля
    Сегодня
    +25°
    +36°
    Ясно и безоблачно
    ВремяПогодаТемператураВлажностьДавлениеВетер, м/сВероятность осадков
    02:00Ясно и безоблачно+27°C81 %756 мм1.8 м/с2 %
    05:00Ясно и безоблачно+26°C79 %756 мм2.8 м/с2 %
    08:00Ясно и безоблачно+29°C62 %757 мм4.4 м/с2 %
    11:00Ясно и безоблачно+35°C42 %757 мм5.0 м/с2 %
    14:00Ясно и безоблачно+33°C51 %755 мм6.0 м/с2 %
    17:00Ясно и безоблачно+31°C59 %755 мм4.3 м/с2 %
    20:00Ясно и безоблачно+29°C70 %756 мм1.8 м/с2 %
    23:00Ясно и безоблачно+28°C77 %757 мм1.7 м/с2 %
  • 22апреля
    Понедельник
    +26°
    +35°
    Практически безоблачно
    ВремяПогодаТемператураВлажностьДавлениеВетер, м/сВероятность осадков
    02:00Ясно и безоблачно+27°C82 %756 мм1.8 м/с2 %
    05:00Ясно и безоблачно+25°C74 %756 мм4.1 м/с2 %
    08:00Ясно и безоблачно+29°C59 %757 мм5.8 м/с2 %
    11:00Облачно с прояснениями+35°C45 %756 мм2.2 м/с2 %
    14:00Практически безоблачно+34°C58 %755 мм6.0 м/с2 %
    17:00Ясно и безоблачно+32°C64 %754 мм5.7 м/с2 %
    20:00Ясно и безоблачно+29°C65 %756 мм2.7 м/с2 %
    23:00Ясно и безоблачно+28°C67 %757 мм0.6 м/с2 %
  • 23апреля
    Вторник
    +26°
    +36°
    Ясно и безоблачно
    ВремяПогодаТемператураВлажностьДавлениеВетер, м/сВероятность осадков
    02:00Небольшая облачность+27°C74 %755 мм1.4 м/с2 %
    05:00Ясно и безоблачно+26°C77 %755 мм1.8 м/с2 %
    08:00Ясно и безоблачно+30°C64 %756 мм3.1 м/с2 %
    11:00Ясно и безоблачно+35°C52 %756 мм0.9 м/с2 %
    14:00Ясно и безоблачно+34°C59 %754 мм4.7 м/с4 %
    17:00Ясно и безоблачно+32°C65 %754 мм4.3 м/с4 %
    20:00Ясно и безоблачно+29°C73 %756 мм1.4 м/с9 %
    23:00Ясно и безоблачно+29°C76 %757 мм1.2 м/с15 %
  • 24апреля
    Среда
    +26°
    +37°
    Небольшая облачность
    ВремяПогодаТемператураВлажностьДавлениеВетер, м/сВероятность осадков
    02:00Облачно с прояснениями+28°C78 %756 мм1.8 м/с13 %
    05:00Небольшая облачность+27°C80 %755 мм1.6 м/с7 %
    08:00Ясно и безоблачно+30°C69 %757 мм2.4 м/с2 %
    11:00Практически безоблачно+35°C60 %756 мм3.5 м/с2 %
    14:00Небольшая облачность+36°C63 %755 мм4.7 м/с17 %
    17:00Небольшая облачность+33°C69 %754 мм4.2 м/с15 %
    20:00Практически безоблачно+31°C72 %756 мм3.2 м/с32 %
    23:00Небольшая облачность+28°C79 %757 мм2.1 м/с31 %
  • 25апреля
    Четверг
    +25°
    +36°
    Небольшая облачность, ливень
    ВремяПогодаТемператураВлажностьДавлениеВетер, м/сВероятность осадков
    02:00Практически безоблачно+28°C79 %756 мм1.9 м/с17 %
    05:00Небольшая облачность+27°C81 %756 мм2.4 м/с19 %
    08:00Небольшая облачность+30°C70 %756 мм3.1 м/с14 %
    11:00Облачно с прояснениями+36°C55 %756 мм2.1 м/с9 %
    14:00Небольшая облачность, ливень+34°C65 %754 мм4.5 м/с37 %
    17:00Ясно и безоблачно+33°C69 %754 мм5.4 м/с29 %
    20:00Небольшая облачность, ливень+28°C84 %756 мм2.2 м/с44 %
    23:00Ясно и безоблачно+27°C84 %756 мм1.6 м/с19 %
Мы используем cookies
Соглашаюсь